createdAt,value
2023-03-29T00:00:56.913Z,110
2023-03-29T00:02:03.754Z,111
2023-03-29T00:03:10.686Z,113
2023-03-29T00:04:17.377Z,114
2023-03-29T00:05:24.144Z,114
2023-03-29T00:06:30.935Z,120
2023-03-29T00:07:37.787Z,122
2023-03-29T00:08:44.574Z,122
2023-03-29T00:09:51.534Z,118
2023-03-29T00:10:58.433Z,115
2023-03-29T00:12:05.238Z,117
2023-03-29T00:13:12.089Z,112
2023-03-29T00:14:18.916Z,115
2023-03-29T00:15:25.740Z,124
2023-03-29T00:16:32.585Z,122
2023-03-29T00:17:39.350Z,110
2023-03-29T00:18:46.152Z,109
2023-03-29T00:19:52.952Z,108
2023-03-29T00:21:00.111Z,108
2023-03-29T00:22:06.754Z,104
2023-03-29T00:23:13.657Z,108
2023-03-29T00:24:20.454Z,109
2023-03-29T00:25:27.220Z,104
2023-03-29T00:26:33.995Z,100
2023-03-29T00:27:41.002Z,108
2023-03-29T00:28:47.857Z,96
2023-03-29T00:29:54.674Z,90
2023-03-29T00:31:01.722Z,95
2023-03-29T00:32:11.064Z,99
2023-03-29T00:33:17.976Z,93
2023-03-29T00:34:24.810Z,92
2023-03-29T00:35:31.690Z,99
2023-03-29T00:36:38.469Z,101
2023-03-29T00:37:45.283Z,95
2023-03-29T00:38:52.100Z,91
2023-03-29T00:39:58.948Z,92
2023-03-29T00:41:05.739Z,87
2023-03-29T00:42:12.530Z,92
2023-03-29T00:43:19.344Z,87
2023-03-29T00:44:26.170Z,96
2023-03-29T00:45:43.155Z,89
2023-03-29T00:46:50.024Z,84
2023-03-29T00:47:56.850Z,87
2023-03-29T00:49:06.374Z,81
2023-03-29T00:50:13.193Z,85
2023-03-29T00:51:22.804Z,85
2023-03-29T00:52:29.621Z,84
2023-03-29T00:53:36.471Z,82
2023-03-29T00:54:43.257Z,84
2023-03-29T00:55:50.053Z,82
2023-03-29T00:56:59.476Z,78
2023-03-29T00:58:06.265Z,79
2023-03-29T00:59:13.114Z,82
2023-03-29T01:00:19.989Z,77
2023-03-29T01:01:26.847Z,80
2023-03-29T01:02:41.722Z,81
2023-03-29T01:03:48.573Z,76
2023-03-29T01:04:55.874Z,72
2023-03-29T01:06:02.681Z,69
2023-03-29T01:07:09.674Z,73
2023-03-29T01:08:19.492Z,78
2023-03-29T01:09:26.296Z,75
2023-03-29T01:10:33.206Z,69
2023-03-29T01:11:44.995Z,65
2023-03-29T01:12:51.871Z,64
2023-03-29T01:13:58.803Z,77
2023-03-29T01:15:05.583Z,71
2023-03-29T01:16:12.531Z,67
2023-03-29T01:17:19.370Z,70
2023-03-29T01:18:26.215Z,70
2023-03-29T01:19:33.245Z,68
2023-03-29T01:20:42.986Z,63
2023-03-29T01:21:52.868Z,59
2023-03-29T01:22:59.617Z,55
2023-03-29T01:24:16.622Z,56
2023-03-29T01:25:31.349Z,57
2023-03-29T01:26:43.267Z,57
2023-03-29T01:28:00.110Z,57
2023-03-29T01:29:09.910Z,57
2023-03-29T01:30:16.732Z,55
2023-03-29T01:31:31.424Z,62
2023-03-29T01:32:38.380Z,53
2023-03-29T01:33:50.230Z,57
2023-03-29T01:34:56.993Z,58
2023-03-29T01:36:03.832Z,53
2023-03-29T01:37:15.770Z,62
2023-03-29T01:38:27.608Z,56
2023-03-29T01:39:34.384Z,54
2023-03-29T01:40:41.155Z,56
2023-03-29T01:41:48.135Z,63
2023-03-29T01:43:05.087Z,61
2023-03-29T01:44:15.049Z,65
2023-03-29T01:45:24.841Z,66
2023-03-29T01:46:34.530Z,72
2023-03-29T01:47:49.159Z,70
2023-03-29T01:49:01.024Z,80
2023-03-29T01:50:07.841Z,92
2023-03-29T01:51:19.884Z,91
2023-03-29T01:52:29.392Z,89
2023-03-29T01:53:39.464Z,86
2023-03-29T01:54:49.163Z,93
2023-03-29T01:55:58.695Z,93
2023-03-29T01:57:10.722Z,102
2023-03-29T01:58:17.337Z,101
2023-03-29T01:59:26.883Z,107
2023-03-29T02:00:33.750Z,102
2023-03-29T02:01:40.728Z,110
2023-03-29T02:02:50.480Z,107
2023-03-29T02:03:57.224Z,108
2023-03-29T02:05:04.090Z,110
2023-03-29T02:06:11.040Z,107
2023-03-29T02:07:17.902Z,109
2023-03-29T02:08:24.769Z,107
2023-03-29T02:09:31.579Z,108
2023-03-29T02:10:38.383Z,103
2023-03-29T02:11:45.228Z,112
2023-03-29T02:12:52.159Z,103
2023-03-29T02:13:58.964Z,104
2023-03-29T02:15:05.778Z,96
2023-03-29T02:16:15.517Z,104
2023-03-29T02:17:22.278Z,105
2023-03-29T02:18:29.054Z,95
2023-03-29T02:19:35.989Z,97
2023-03-29T02:20:42.907Z,102
2023-03-29T02:21:49.710Z,96
2023-03-29T02:22:56.482Z,101
2023-03-29T02:24:08.335Z,95
2023-03-29T02:25:15.121Z,92
2023-03-29T02:26:21.998Z,88
2023-03-29T02:27:28.786Z,89
2023-03-29T02:28:35.733Z,95
2023-03-29T02:29:42.528Z,87
2023-03-29T02:30:49.419Z,93
2023-03-29T02:32:01.268Z,93
2023-03-29T02:33:13.203Z,88
2023-03-29T02:34:25.195Z,90
2023-03-29T02:35:38.600Z,87
2023-03-29T02:36:45.322Z,86
2023-03-29T02:37:57.279Z,94
2023-03-29T02:39:04.289Z,91
2023-03-29T02:40:11.104Z,91
2023-03-29T02:41:17.915Z,85
2023-03-29T02:42:24.730Z,84
2023-03-29T02:43:31.536Z,85
2023-03-29T02:44:38.421Z,87
2023-03-29T02:45:45.378Z,87
2023-03-29T02:46:52.183Z,96
2023-03-29T02:47:58.943Z,94
2023-03-29T02:49:05.758Z,95
2023-03-29T02:50:15.212Z,100
2023-03-29T02:51:22.170Z,93
2023-03-29T02:52:29.014Z,92
2023-03-29T02:53:35.808Z,99
2023-03-29T02:54:42.597Z,99
2023-03-29T02:55:49.488Z,93
2023-03-29T02:56:56.291Z,94
2023-03-29T02:58:03.104Z,91
2023-03-29T02:59:09.888Z,95
2023-03-29T03:00:16.816Z,97
2023-03-29T03:01:23.682Z,94
2023-03-29T03:02:30.519Z,88
2023-03-29T03:03:37.449Z,96
2023-03-29T03:04:44.267Z,95
2023-03-29T03:05:51.176Z,94
2023-03-29T03:06:57.969Z,107
2023-03-29T03:08:04.774Z,107
2023-03-29T03:09:11.653Z,111
2023-03-29T03:10:18.458Z,107
2023-03-29T03:11:25.256Z,118
2023-03-29T03:12:32.074Z,121
2023-03-29T03:13:38.834Z,119
2023-03-29T03:14:45.694Z,129
2023-03-29T03:15:52.628Z,131
2023-03-29T03:17:00.294Z,128
2023-03-29T03:18:06.259Z,125
2023-03-29T03:19:12.990Z,121
2023-03-29T03:20:19.821Z,113
2023-03-29T03:21:26.672Z,112
2023-03-29T03:22:33.484Z,112
2023-03-29T03:23:40.285Z,108
2023-03-29T03:24:47.095Z,106
2023-03-29T03:25:53.918Z,106
2023-03-29T03:27:00.894Z,113
2023-03-29T03:28:07.739Z,118
2023-03-29T03:29:14.614Z,120
2023-03-29T03:30:21.445Z,126
2023-03-29T03:31:28.326Z,120
2023-03-29T03:32:35.169Z,128
2023-03-29T03:33:42.143Z,119
2023-03-29T03:34:49.033Z,125
2023-03-29T03:35:55.809Z,122
2023-03-29T03:37:07.715Z,127
2023-03-29T03:38:14.516Z,124
2023-03-29T03:39:21.344Z,128
2023-03-29T03:40:28.369Z,125
2023-03-29T03:41:35.018Z,124
2023-03-29T03:42:41.825Z,120
2023-03-29T03:43:51.688Z,122
2023-03-29T03:44:58.494Z,110
2023-03-29T03:46:05.446Z,108
2023-03-29T03:47:12.202Z,108
2023-03-29T03:48:19.047Z,107
2023-03-29T03:49:25.862Z,105
2023-03-29T03:50:32.730Z,101
2023-03-29T03:51:39.539Z,100
2023-03-29T03:52:46.414Z,101
2023-03-29T03:53:53.331Z,104
2023-03-29T03:55:00.124Z,99
2023-03-29T03:56:06.953Z,91
2023-03-29T03:57:13.827Z,99
2023-03-29T03:58:20.594Z,101
2023-03-29T03:59:27.446Z,105
2023-03-29T04:00:34.420Z,110
2023-03-29T04:01:41.223Z,108
2023-03-29T04:02:48.242Z,108
2023-03-29T04:03:54.901Z,109
2023-03-29T04:05:01.710Z,102
2023-03-29T04:06:08.842Z,105
2023-03-29T04:07:15.643Z,109
2023-03-29T04:08:22.465Z,108
2023-03-29T04:09:29.322Z,115
2023-03-29T04:10:36.322Z,108
2023-03-29T04:11:43.249Z,111
2023-03-29T04:12:49.990Z,114
2023-03-29T04:13:56.757Z,116
2023-03-29T04:15:03.582Z,132
2023-03-29T04:16:10.677Z,132
2023-03-29T04:17:17.606Z,122
2023-03-29T04:18:24.685Z,118
2023-03-29T04:19:31.358Z,111
2023-03-29T04:20:38.161Z,108
2023-03-29T04:21:44.940Z,105
2023-03-29T04:22:51.794Z,109
2023-03-29T04:23:58.702Z,98
2023-03-29T04:25:05.568Z,92
2023-03-29T04:26:12.430Z,92
2023-03-29T04:27:19.250Z,86
2023-03-29T04:28:26.259Z,91
2023-03-29T04:29:33.068Z,80
2023-03-29T04:30:39.893Z,90
2023-03-29T04:31:46.749Z,102
2023-03-29T04:32:53.532Z,108
2023-03-29T04:34:00.562Z,98
2023-03-29T04:35:07.212Z,100
2023-03-29T04:36:14.113Z,95
2023-03-29T04:37:20.903Z,95
2023-03-29T04:38:27.733Z,93
2023-03-29T04:39:34.573Z,91
2023-03-29T04:40:41.400Z,94
2023-03-29T04:41:48.330Z,94
2023-03-29T04:42:55.109Z,101
2023-03-29T04:44:01.933Z,91
2023-03-29T04:45:08.931Z,86
2023-03-29T04:46:15.775Z,109
2023-03-29T04:47:22.600Z,81
2023-03-29T04:48:29.373Z,91
2023-03-29T04:49:36.229Z,83
2023-03-29T04:50:43.048Z,79
2023-03-29T04:51:49.916Z,83
2023-03-29T04:52:56.741Z,78
2023-03-29T04:54:03.492Z,82
2023-03-29T04:55:10.258Z,82
2023-03-29T04:56:17.077Z,88
2023-03-29T04:57:23.994Z,77
2023-03-29T04:58:32.352Z,83
2023-03-29T04:59:37.786Z,78
2023-03-29T05:00:44.704Z,80
2023-03-29T05:01:51.525Z,77
2023-03-29T05:02:58.340Z,90
2023-03-29T05:04:05.203Z,85
2023-03-29T05:05:12.019Z,81
2023-03-29T05:06:18.850Z,69
2023-03-29T05:07:25.769Z,68
2023-03-29T05:08:32.570Z,83
2023-03-29T05:09:39.560Z,71
2023-03-29T05:10:46.565Z,72
2023-03-29T05:11:53.375Z,72
2023-03-29T05:13:00.135Z,78
2023-03-29T05:14:06.920Z,70
2023-03-29T05:15:13.804Z,93
2023-03-29T05:16:23.288Z,74
2023-03-29T05:17:30.106Z,76
2023-03-29T05:18:36.865Z,82
2023-03-29T05:19:43.694Z,83
2023-03-29T05:20:50.545Z,75
2023-03-29T05:21:57.457Z,79
2023-03-29T05:23:04.383Z,76
2023-03-29T05:24:11.235Z,79
2023-03-29T05:25:17.997Z,78
2023-03-29T05:26:24.828Z,81
2023-03-29T05:27:31.707Z,70
2023-03-29T05:28:38.547Z,99
2023-03-29T05:29:45.327Z,80
2023-03-29T05:30:52.210Z,66
2023-03-29T05:32:02.017Z,77
2023-03-29T05:33:08.869Z,63
2023-03-29T05:34:15.611Z,65
2023-03-29T05:35:22.518Z,61
2023-03-29T05:36:29.349Z,61
2023-03-29T05:37:36.122Z,71
2023-03-29T05:38:42.979Z,65
2023-03-29T05:39:49.931Z,63
2023-03-29T05:40:56.696Z,58
2023-03-29T05:42:03.561Z,67
2023-03-29T05:43:10.365Z,60
2023-03-29T05:44:17.210Z,57
2023-03-29T05:45:24.106Z,60
2023-03-29T05:46:31.084Z,70
2023-03-29T05:47:38.008Z,49
2023-03-29T05:48:44.644Z,58
2023-03-29T05:49:51.445Z,61
2023-03-29T05:50:58.271Z,50
2023-03-29T05:52:05.264Z,52
2023-03-29T05:53:12.172Z,44
2023-03-29T05:54:18.982Z,46
2023-03-29T05:55:25.825Z,44
2023-03-29T05:56:33.041Z,44
2023-03-29T05:57:39.863Z,48
2023-03-29T05:58:46.701Z,53
2023-03-29T05:59:53.534Z,45
2023-03-29T06:01:00.559Z,38
2023-03-29T06:02:07.278Z,44
2023-03-29T06:03:20.761Z,45
2023-03-29T06:04:21.178Z,40
2023-03-29T06:05:27.957Z,44
2023-03-29T06:06:34.781Z,37
2023-03-29T06:07:41.616Z,46
2023-03-29T06:08:48.782Z,38
2023-03-29T06:09:55.618Z,38
2023-03-29T06:11:04.439Z,39
2023-03-29T06:12:09.270Z,28
2023-03-29T06:13:16.067Z,38
2023-03-29T06:14:22.936Z,25
2023-03-29T06:15:29.808Z,25
2023-03-29T06:16:36.666Z,29
2023-03-29T06:17:43.463Z,25
2023-03-29T06:18:50.235Z,25
2023-03-29T06:19:57.094Z,25
2023-03-29T06:21:04.417Z,25
2023-03-29T06:22:12.590Z,25
2023-03-29T06:23:17.889Z,31
2023-03-29T06:24:24.654Z,29
2023-03-29T06:25:31.634Z,38
2023-03-29T06:26:38.547Z,25
2023-03-29T06:27:45.378Z,25
2023-03-29T06:28:52.540Z,25
2023-03-29T06:29:59.433Z,25
2023-03-29T06:31:06.608Z,33
2023-03-29T06:32:13.267Z,26
2023-03-29T06:33:20.079Z,32
2023-03-29T06:34:26.863Z,30
2023-03-29T06:35:33.736Z,31
2023-03-29T06:36:40.544Z,28
2023-03-29T06:37:47.488Z,25
2023-03-29T06:38:54.377Z,31
2023-03-29T06:40:01.136Z,25
2023-03-29T06:41:08.091Z,25
2023-03-29T06:42:20.916Z,30
2023-03-29T06:43:24.686Z,34
2023-03-29T06:44:31.461Z,25
2023-03-29T06:45:38.428Z,33
2023-03-29T06:46:45.476Z,31
2023-03-29T06:47:52.195Z,26
2023-03-29T06:48:58.916Z,25
2023-03-29T06:50:05.773Z,27
2023-03-29T06:51:12.758Z,25
2023-03-29T06:52:19.578Z,25
2023-03-29T06:53:26.388Z,27
2023-03-29T06:54:33.180Z,29
2023-03-29T06:55:40.016Z,36
2023-03-29T06:56:46.824Z,36
2023-03-29T06:57:53.752Z,37
2023-03-29T06:59:00.484Z,27
2023-03-29T07:00:07.297Z,28
2023-03-29T07:01:19.378Z,27
2023-03-29T07:02:26.210Z,32
2023-03-29T07:03:33.088Z,28
2023-03-29T07:04:40.006Z,36
2023-03-29T07:05:46.813Z,30
2023-03-29T07:06:53.596Z,28
2023-03-29T07:08:03.457Z,31
2023-03-29T07:09:10.248Z,45
2023-03-29T07:10:17.223Z,28
2023-03-29T07:11:29.079Z,37
2023-03-29T07:12:36.040Z,39
2023-03-29T07:13:42.911Z,40
2023-03-29T07:14:49.649Z,41
2023-03-29T07:15:56.553Z,38
2023-03-29T07:17:03.318Z,38
2023-03-29T07:18:10.302Z,28
2023-03-29T07:19:17.145Z,25
2023-03-29T07:20:23.994Z,26
2023-03-29T07:21:30.824Z,45
2023-03-29T07:22:37.608Z,38
2023-03-29T07:23:44.577Z,32
2023-03-29T07:24:51.459Z,33
2023-03-29T07:25:58.551Z,28
2023-03-29T07:27:08.421Z,44
2023-03-29T07:28:15.327Z,25
2023-03-29T07:29:22.102Z,29
2023-03-29T07:30:31.087Z,42
2023-03-29T07:31:35.910Z,36
2023-03-29T07:32:42.834Z,29
2023-03-29T07:33:49.760Z,38
2023-03-29T07:34:56.534Z,35
2023-03-29T07:36:03.460Z,28
2023-03-29T07:37:10.517Z,37
2023-03-29T07:38:17.402Z,28
2023-03-29T07:39:24.201Z,40
2023-03-29T07:40:31.191Z,28
2023-03-29T07:41:38.032Z,41
2023-03-29T07:42:44.829Z,29
2023-03-29T07:43:51.619Z,25
2023-03-29T07:44:58.453Z,50
2023-03-29T07:46:05.336Z,40
2023-03-29T07:47:12.092Z,39
2023-03-29T07:48:18.939Z,37
2023-03-29T07:49:25.771Z,39
2023-03-29T07:50:32.744Z,39
2023-03-29T07:51:39.433Z,47
2023-03-29T07:52:46.219Z,31
2023-03-29T07:53:53.016Z,27
2023-03-29T07:54:59.812Z,25
2023-03-29T07:56:06.706Z,44
2023-03-29T07:57:13.544Z,25
2023-03-29T07:58:20.346Z,29
2023-03-29T07:59:27.202Z,37
2023-03-29T08:00:34.237Z,43
2023-03-29T08:01:41.032Z,25
2023-03-29T08:02:47.972Z,48
2023-03-29T08:03:54.850Z,37
2023-03-29T08:05:01.689Z,45
2023-03-29T08:06:08.649Z,37
2023-03-29T08:07:17.018Z,45
2023-03-29T08:08:24.995Z,34
2023-03-29T08:09:31.896Z,37
2023-03-29T08:10:38.730Z,44
2023-03-29T08:11:45.523Z,50
2023-03-29T08:12:52.573Z,40
2023-03-29T08:13:59.238Z,34
2023-03-29T08:15:06.087Z,31
2023-03-29T08:16:12.938Z,32
2023-03-29T08:17:19.713Z,45
2023-03-29T08:18:26.672Z,35
2023-03-29T08:19:33.541Z,32
2023-03-29T08:20:40.357Z,30
2023-03-29T08:21:47.129Z,25
2023-03-29T08:22:53.976Z,35
2023-03-29T08:24:00.842Z,26
2023-03-29T08:25:07.924Z,42
2023-03-29T08:26:14.694Z,42
2023-03-29T08:27:21.546Z,25
2023-03-29T08:28:28.385Z,52
2023-03-29T08:29:35.627Z,59
2023-03-29T08:30:42.724Z,63
2023-03-29T08:31:49.693Z,60
2023-03-29T08:32:56.531Z,66
2023-03-29T08:34:03.336Z,55
2023-03-29T08:35:10.145Z,39
2023-03-29T08:36:17.117Z,25
2023-03-29T08:37:26.468Z,37
2023-03-29T08:38:33.351Z,43
2023-03-29T08:39:40.108Z,33
2023-03-29T08:40:46.922Z,49
2023-03-29T08:41:53.711Z,57
2023-03-29T08:43:03.593Z,50
2023-03-29T08:44:18.025Z,60
2023-03-29T08:45:29.813Z,45
2023-03-29T08:46:41.741Z,31
2023-03-29T08:47:58.672Z,47
2023-03-29T08:49:10.469Z,35
2023-03-29T08:50:17.218Z,41
2023-03-29T08:51:23.996Z,47
2023-03-29T08:52:33.570Z,48
2023-03-29T08:53:45.360Z,50
2023-03-29T08:54:57.208Z,40
2023-03-29T08:56:04.117Z,65
2023-03-29T08:57:11.106Z,47
2023-03-29T08:58:22.890Z,49
2023-03-29T08:59:29.715Z,25
2023-03-29T09:00:36.666Z,37
2023-03-29T09:01:43.485Z,25
2023-03-29T09:02:50.366Z,34
2023-03-29T09:03:57.147Z,26
2023-03-29T09:05:03.970Z,33
2023-03-29T09:06:20.878Z,30
2023-03-29T09:07:27.721Z,54
2023-03-29T09:08:34.554Z,54
2023-03-29T09:09:49.238Z,52
2023-03-29T09:10:56.064Z,54
2023-03-29T09:12:10.834Z,43
2023-03-29T09:13:17.668Z,54
2023-03-29T09:14:32.423Z,49
2023-03-29T09:15:49.395Z,30
2023-03-29T09:16:56.122Z,25
2023-03-29T09:18:13.075Z,33
2023-03-29T09:19:22.861Z,25
2023-03-29T09:20:39.854Z,30
2023-03-29T09:21:49.369Z,39
2023-03-29T09:22:58.921Z,36
2023-03-29T09:24:11.357Z,53
2023-03-29T09:25:24.013Z,59
2023-03-29T09:26:40.928Z,45
2023-03-29T09:27:55.668Z,25
2023-03-29T09:29:09.509Z,35
2023-03-29T09:30:19.633Z,25
2023-03-29T09:31:31.440Z,44
2023-03-29T09:32:40.907Z,53
2023-03-29T09:33:47.841Z,35
2023-03-29T09:34:59.739Z,36
2023-03-29T09:36:14.628Z,25
2023-03-29T09:37:31.492Z,52
2023-03-29T09:38:38.344Z,81
2023-03-29T09:39:45.194Z,70
2023-03-29T09:40:51.927Z,70
2023-03-29T09:41:58.734Z,59
2023-03-29T09:43:08.383Z,27
2023-03-29T09:44:30.055Z,47
2023-03-29T09:45:27.842Z,46
2023-03-29T09:46:34.622Z,47
2023-03-29T09:47:41.547Z,37
2023-03-29T09:48:56.110Z,66
2023-03-29T09:50:02.917Z,83
2023-03-29T09:51:14.794Z,76
2023-03-29T09:52:21.563Z,62
2023-03-29T09:53:28.462Z,46
2023-03-29T09:54:35.288Z,31
2023-03-29T09:55:42.145Z,81
2023-03-29T09:56:49.033Z,68
2023-03-29T09:57:55.716Z,66
2023-03-29T09:59:02.571Z,31
2023-03-29T10:00:09.422Z,62
2023-03-29T10:01:16.608Z,63
2023-03-29T10:02:23.352Z,54
2023-03-29T10:03:30.072Z,25
2023-03-29T10:04:37.024Z,25
2023-03-29T10:05:43.760Z,45
2023-03-29T10:06:50.559Z,48
2023-03-29T10:07:57.313Z,44
2023-03-29T10:09:04.144Z,33
2023-03-29T10:10:10.898Z,25
2023-03-29T10:11:22.761Z,32
2023-03-29T10:12:32.584Z,32
2023-03-29T10:13:39.397Z,54
2023-03-29T10:14:53.757Z,55
2023-03-29T10:15:58.897Z,67
2023-03-29T10:17:08.451Z,67
2023-03-29T10:18:22.984Z,38
2023-03-29T10:19:29.804Z,31
2023-03-29T10:20:36.656Z,31
2023-03-29T10:21:43.849Z,65
2023-03-29T10:22:50.835Z,84
2023-03-29T10:24:00.883Z,49
2023-03-29T10:25:07.832Z,37
2023-03-29T10:26:17.648Z,52
2023-03-29T10:27:27.455Z,35
2023-03-29T10:28:34.235Z,37
2023-03-29T10:29:41.076Z,40
2023-03-29T10:30:47.915Z,54
2023-03-29T10:31:57.920Z,53
2023-03-29T10:33:04.842Z,58
2023-03-29T10:34:11.582Z,41
2023-03-29T10:35:18.379Z,27
2023-03-29T10:36:25.143Z,47
2023-03-29T10:37:31.949Z,63
2023-03-29T10:38:38.823Z,77
2023-03-29T10:39:45.675Z,43
2023-03-29T10:40:52.419Z,38
2023-03-29T10:41:59.204Z,58
2023-03-29T10:43:06.044Z,45
2023-03-29T10:44:15.498Z,25
2023-03-29T10:45:29.877Z,25
2023-03-29T10:46:36.810Z,27
2023-03-29T10:47:43.574Z,27
2023-03-29T10:48:50.340Z,49
2023-03-29T10:50:04.918Z,60
2023-03-29T10:51:11.735Z,60
2023-03-29T10:52:18.544Z,64
2023-03-29T10:53:25.267Z,77
2023-03-29T10:54:32.026Z,85
2023-03-29T10:55:38.902Z,71
2023-03-29T10:56:45.785Z,38
2023-03-29T10:57:52.534Z,62
2023-03-29T10:58:59.298Z,46
2023-03-29T11:00:11.107Z,47
2023-03-29T11:01:20.789Z,54
2023-03-29T11:02:30.438Z,72
2023-03-29T11:03:37.207Z,57
2023-03-29T11:04:48.994Z,71
2023-03-29T11:06:05.924Z,58
2023-03-29T11:07:15.444Z,54
2023-03-29T11:08:32.319Z,60
2023-03-29T11:09:44.228Z,32
2023-03-29T11:11:01.387Z,33
2023-03-29T11:12:15.397Z,31
2023-03-29T11:13:22.563Z,27
2023-03-29T11:14:34.389Z,43
2023-03-29T11:15:46.249Z,62
2023-03-29T11:17:00.697Z,81
2023-03-29T11:18:12.653Z,59
2023-03-29T11:19:29.532Z,62
2023-03-29T11:20:46.465Z,72
2023-03-29T11:22:03.409Z,68
2023-03-29T11:23:18.068Z,44
2023-03-29T11:24:29.881Z,43
2023-03-29T11:25:41.703Z,70
2023-03-29T11:26:58.925Z,42
2023-03-29T11:28:15.928Z,31
2023-03-29T11:29:22.670Z,38
2023-03-29T11:30:29.452Z,36
2023-03-29T11:31:43.878Z,25
2023-03-29T11:33:00.911Z,34
2023-03-29T11:34:10.786Z,75
2023-03-29T11:35:27.718Z,78
2023-03-29T11:36:39.589Z,70
2023-03-29T11:37:54.090Z,35
2023-03-29T11:39:10.965Z,40
2023-03-29T11:40:22.781Z,28
2023-03-29T11:41:39.660Z,43
2023-03-29T11:42:46.585Z,46
2023-03-29T11:43:54.887Z,68
2023-03-29T11:45:05.329Z,70
2023-03-29T11:46:19.860Z,59
2023-03-29T11:47:31.718Z,53
2023-03-29T11:48:38.483Z,55
2023-03-29T11:49:50.723Z,62
2023-03-29T11:51:00.780Z,41
2023-03-29T11:52:12.561Z,29
2023-03-29T11:53:22.040Z,49
2023-03-29T11:54:28.807Z,25
2023-03-29T11:55:40.631Z,29
2023-03-29T11:56:47.504Z,39
2023-03-29T11:58:04.418Z,35
2023-03-29T11:59:17.211Z,38
2023-03-29T12:00:27.147Z,28
2023-03-29T12:01:34.066Z,33
2023-03-29T12:02:41.153Z,46
2023-03-29T12:03:50.741Z,42
2023-03-29T12:04:57.490Z,64
2023-03-29T12:06:04.357Z,58
2023-03-29T12:07:21.297Z,54
2023-03-29T12:08:33.191Z,54
2023-03-29T12:09:42.833Z,51
2023-03-29T12:10:52.546Z,44
2023-03-29T12:12:04.371Z,41
2023-03-29T12:13:11.227Z,49
2023-03-29T12:14:18.125Z,38
2023-03-29T12:15:27.617Z,31
2023-03-29T12:16:34.503Z,26
2023-03-29T12:17:49.100Z,42
2023-03-29T12:19:03.992Z,49
2023-03-29T12:20:20.997Z,32
2023-03-29T12:21:27.763Z,58
2023-03-29T12:22:34.616Z,44
2023-03-29T12:23:41.396Z,32
2023-03-29T12:24:48.169Z,50
2023-03-29T12:25:54.941Z,45
2023-03-29T12:27:04.437Z,43
2023-03-29T12:28:11.290Z,31
2023-03-29T12:29:23.181Z,25
2023-03-29T12:30:35.030Z,28
2023-03-29T12:31:49.532Z,37
2023-03-29T12:33:06.487Z,34
2023-03-29T12:34:23.328Z,38
2023-03-29T12:35:40.277Z,45
2023-03-29T12:36:57.213Z,51
2023-03-29T12:38:14.184Z,51
2023-03-29T12:39:26.083Z,38
2023-03-29T12:40:32.881Z,46
2023-03-29T12:41:39.789Z,43
2023-03-29T12:42:46.696Z,42
2023-03-29T12:43:56.218Z,39
2023-03-29T12:45:06.023Z,61
2023-03-29T12:46:18.082Z,47
2023-03-29T12:47:24.996Z,63
2023-03-29T12:48:31.913Z,47
2023-03-29T12:49:38.748Z,29
2023-03-29T12:50:45.571Z,57
2023-03-29T12:51:55.494Z,65
2023-03-29T12:53:02.347Z,56
2023-03-29T12:54:17.132Z,49
2023-03-29T12:55:23.882Z,61
2023-03-29T12:56:33.435Z,52
2023-03-29T12:57:43.055Z,39
2023-03-29T12:59:00.140Z,25
2023-03-29T13:00:17.059Z,32
2023-03-29T13:01:27.016Z,26
2023-03-29T13:02:33.847Z,45
2023-03-29T13:03:40.609Z,64
2023-03-29T13:04:53.298Z,79
2023-03-29T13:06:00.429Z,72
2023-03-29T13:07:07.084Z,44
2023-03-29T13:08:23.938Z,38
2023-03-29T13:09:30.795Z,51
2023-03-29T13:10:37.576Z,67
2023-03-29T13:11:44.361Z,46
2023-03-29T13:12:56.261Z,54
2023-03-29T13:14:03.113Z,34
2023-03-29T13:15:12.606Z,40
2023-03-29T13:16:19.487Z,44
2023-03-29T13:17:34.121Z,44
2023-03-29T13:18:50.955Z,25
2023-03-29T13:20:02.794Z,29
2023-03-29T13:21:19.724Z,58
2023-03-29T13:22:29.255Z,68
2023-03-29T13:23:41.133Z,68
2023-03-29T13:24:47.986Z,63
2023-03-29T13:26:00.017Z,43
2023-03-29T13:27:11.762Z,43
2023-03-29T13:28:23.542Z,36
2023-03-29T13:29:38.522Z,46
2023-03-29T13:30:53.336Z,64
2023-03-29T13:32:05.252Z,72
2023-03-29T13:33:19.902Z,60
2023-03-29T13:34:36.832Z,52
2023-03-29T13:35:43.647Z,40
2023-03-29T13:37:00.669Z,34
2023-03-29T13:38:07.457Z,59
2023-03-29T13:39:24.389Z,43
2023-03-29T13:40:31.324Z,35
2023-03-29T13:41:43.217Z,39
2023-03-29T13:42:50.102Z,43
2023-03-29T13:43:59.842Z,58
2023-03-29T13:45:06.733Z,60
2023-03-29T13:46:13.670Z,60
2023-03-29T13:47:20.410Z,41
2023-03-29T13:48:32.353Z,39
2023-03-29T13:49:39.197Z,25
2023-03-29T13:50:46.041Z,35
2023-03-29T13:51:55.619Z,47
2023-03-29T13:53:12.584Z,50
2023-03-29T13:54:19.432Z,40
2023-03-29T13:55:36.158Z,53
2023-03-29T13:56:41.289Z,52
2023-03-29T13:57:55.821Z,55
2023-03-29T13:59:05.504Z,61
2023-03-29T14:00:20.357Z,53
2023-03-29T14:01:27.189Z,57
2023-03-29T14:02:39.228Z,43
2023-03-29T14:03:51.540Z,46
2023-03-29T14:04:58.384Z,47
2023-03-29T14:06:05.372Z,63
2023-03-29T14:07:12.121Z,53
2023-03-29T14:08:19.118Z,42
2023-03-29T14:09:30.976Z,40
2023-03-29T14:10:37.919Z,56
2023-03-29T14:11:44.664Z,46
2023-03-29T14:12:51.444Z,44
2023-03-29T14:13:58.204Z,41
2023-03-29T14:15:05.055Z,35
2023-03-29T14:16:12.215Z,25
2023-03-29T14:17:18.904Z,45
2023-03-29T14:18:25.729Z,39
2023-03-29T14:19:32.623Z,48
2023-03-29T14:20:39.409Z,52
2023-03-29T14:21:46.280Z,51
2023-03-29T14:22:53.215Z,53
2023-03-29T14:24:00.033Z,30
2023-03-29T14:25:06.907Z,39
2023-03-29T14:26:16.473Z,45
2023-03-29T14:27:23.288Z,29
2023-03-29T14:28:30.160Z,32
2023-03-29T14:29:36.975Z,25
2023-03-29T14:30:43.861Z,46
2023-03-29T14:31:50.715Z,46
2023-03-29T14:32:57.564Z,39
2023-03-29T14:34:04.458Z,32
2023-03-29T14:35:11.306Z,25
2023-03-29T14:36:18.211Z,28
2023-03-29T14:37:24.964Z,34
2023-03-29T14:38:31.766Z,50
2023-03-29T14:39:38.657Z,59
2023-03-29T14:40:45.615Z,41
2023-03-29T14:41:52.507Z,40
2023-03-29T14:42:59.236Z,53
2023-03-29T14:44:06.038Z,51
2023-03-29T14:45:12.941Z,38
2023-03-29T14:46:19.857Z,64
2023-03-29T14:47:29.757Z,59
2023-03-29T14:48:50.734Z,55
2023-03-29T14:49:51.226Z,57
2023-03-29T14:50:58.183Z,59
2023-03-29T14:52:04.987Z,57
2023-03-29T14:53:11.788Z,36
2023-03-29T14:54:23.655Z,55
2023-03-29T14:55:33.463Z,40
2023-03-29T14:56:40.232Z,37
2023-03-29T14:57:47.018Z,40
2023-03-29T14:58:53.798Z,43
2023-03-29T15:00:00.692Z,56
2023-03-29T15:01:07.605Z,47
2023-03-29T15:02:19.559Z,42
2023-03-29T15:03:26.554Z,37
2023-03-29T15:04:33.143Z,39
2023-03-29T15:05:39.944Z,59
2023-03-29T15:06:46.714Z,47
2023-03-29T15:07:56.424Z,41
2023-03-29T15:09:06.389Z,49
2023-03-29T15:10:10.032Z,63
2023-03-29T15:11:21.982Z,53
2023-03-29T15:12:28.743Z,50
2023-03-29T15:13:35.637Z,39
2023-03-29T15:14:42.391Z,41
2023-03-29T15:15:49.312Z,50
2023-03-29T15:16:56.131Z,31
2023-03-29T15:18:05.944Z,28
2023-03-29T15:19:12.631Z,47
2023-03-29T15:20:19.422Z,47
2023-03-29T15:21:26.183Z,46
2023-03-29T15:22:33.027Z,43
2023-03-29T15:23:39.927Z,39
2023-03-29T15:24:51.809Z,37
2023-03-29T15:25:58.773Z,53
2023-03-29T15:27:10.552Z,44
2023-03-29T15:28:17.354Z,45
2023-03-29T15:29:27.569Z,47
2023-03-29T15:30:36.807Z,45
2023-03-29T15:31:43.611Z,39
2023-03-29T15:32:50.483Z,45
2023-03-29T15:33:57.413Z,51
2023-03-29T15:35:09.267Z,54
2023-03-29T15:36:24.017Z,51
2023-03-29T15:37:30.854Z,52
2023-03-29T15:38:43.671Z,60
2023-03-29T15:39:44.529Z,31
2023-03-29T15:40:51.373Z,45
2023-03-29T15:41:58.180Z,25
2023-03-29T15:43:04.924Z,70
2023-03-29T15:44:11.740Z,35
2023-03-29T15:45:18.697Z,52
2023-03-29T15:46:25.536Z,48
2023-03-29T15:47:32.289Z,36
2023-03-29T15:48:40.198Z,68
2023-03-29T15:49:47.004Z,42
2023-03-29T15:50:53.816Z,49
2023-03-29T15:52:00.608Z,55
2023-03-29T15:53:15.006Z,44
2023-03-29T15:54:14.382Z,68
2023-03-29T15:55:21.093Z,65
2023-03-29T15:56:27.927Z,65
2023-03-29T15:57:34.890Z,60
2023-03-29T15:58:41.771Z,57
2023-03-29T15:59:48.632Z,58
2023-03-29T16:00:55.596Z,60
2023-03-29T16:02:02.473Z,59
2023-03-29T16:03:09.260Z,61
2023-03-29T16:04:16.114Z,52
2023-03-29T16:05:22.964Z,53
2023-03-29T16:06:29.731Z,55
2023-03-29T16:07:36.509Z,54
2023-03-29T16:08:43.279Z,49
2023-03-29T16:09:50.247Z,49